KIDA/IDA METAR and TAF weather

Enter ICAO airport designator
Station Type Date Time Source
KIDA METAR 2021/05/15 01:53 UTC NOAA

KIDA 150153Z AUTO 07003KT 10SM SCT110 19/01 A2997 RMK AO2 SLP123 T01940011


Station Type Date Time Source
KIDA Decoded METAR 2021/05/15 01:53 UTC NOAA

IDAHO FALLS REGIONAL AIRPORT, ID, United States (KIDA) 43-31N 112-04W 1453M
May 14, 2021 - 09:53 PM EDT / 2021.05.15 0153 UTC
Wind: from the ENE (070 degrees) at 3 MPH (3 KT):0
Visibility: 10 mile(s):0
Sky conditions: partly cloudy
Temperature: 66.9 F (19.4 C)
Dew Point: 34.0 F (1.1 C)
Relative Humidity: 29%
Pressure (altimeter): 29.97 in. Hg (1014 hPa)
ob: KIDA 150153Z AUTO 07003KT 10SM SCT110 19/01 A2997 RMK AO2 SLP123 T01940011
cycle: 2

Station Type Date Time Source
KIDA TAF 2021/05/14 18:27 UTC NOAA

TAF KIDA 141725Z 1418/1518 VRB06KT P6SM SCT150
FM142200 31009KT P6SM VCTS SCT060 BKN080CB
FM150400 VRB06KT P6SM VCSH SCT060 BKN120
FM151100 VRB06KT P6SM VCSH SCT030 BKN060

Example: see airport list